Time;durP1;ratioP1;P1;durP2;ratioP2;P2;SDS_P1;SDS_P2;PMS_P1;PMS_P2;Temp;Humidity;BMP_temperature;BMP_pressure;BME280_temperature;BME280_humidity;BME280_pressure;Samples;Min_cycle;Max_cycle;Signal;HPM_P1;HPM_P2
2023/07/02 00:01:12;;;;;;;5.57;2.47;;;18.50;99.90;;;;;;5074554;28;20366;-79
2023/07/02 00:03:38;;;;;;;4.03;2.67;;;18.50;99.90;;;;;;5073947;28;20085;-79
2023/07/02 00:06:04;;;;;;;3.72;2.50;;;18.50;99.90;;;;;;5074218;28;20081;-79
2023/07/02 00:08:29;;;;;;;3.97;2.28;;;18.50;99.90;;;;;;5072794;28;20060;-78
2023/07/02 00:10:55;;;;;;;3.42;2.15;;;18.50;99.90;;;;;;5075343;28;20468;-78
2023/07/02 00:13:21;;;;;;;5.38;2.35;;;18.60;99.90;;;;;;5074851;28;20039;-80
2023/07/02 00:15:46;;;;;;;4.22;2.53;;;18.50;99.90;;;;;;5080403;28;20012;-79
2023/07/02 00:18:16;;;;;;;5.03;3.05;;;18.60;99.90;;;;;;5088719;28;20408;-79
2023/07/02 00:20:42;;;;;;;5.85;2.42;;;18.60;99.90;;;;;;5074211;28;20028;-78
2023/07/02 00:23:09;;;;;;;3.80;2.30;;;18.60;99.90;;;;;;5074487;28;20028;-77
2023/07/02 00:25:35;;;;;;;6.65;2.42;;;18.60;99.90;;;;;;5073345;28;20020;-79
2023/07/02 00:28:01;;;;;;;2.47;1.80;;;18.60;99.90;;;;;;5074215;28;20033;-79
2023/07/02 00:30:27;;;;;;;2.78;2.15;;;18.60;99.90;;;;;;5084946;28;20020;-78
2023/07/02 00:32:52;;;;;;;5.75;2.45;;;18.50;99.90;;;;;;5073532;28;20021;-79
2023/07/02 00:35:18;;;;;;;5.53;2.30;;;18.50;99.90;;;;;;5074364;28;20023;-80
2023/07/02 00:37:43;;;;;;;5.30;2.13;;;18.50;99.90;;;;;;5074043;28;20334;-79
2023/07/02 00:40:09;;;;;;;4.05;2.28;;;18.50;99.90;;;;;;5075315;28;20043;-85
2023/07/02 00:42:35;;;;;;;4.22;2.28;;;18.60;99.90;;;;;;5073929;28;20044;-89
2023/07/02 00:45:04;;;;;;;3.00;2.20;;;18.50;99.90;;;;;;5074852;28;20028;-84
2023/07/02 00:47:38;;;;;;;4.22;2.30;;;18.50;99.90;;;;;;5075239;28;20024;-86
2023/07/02 00:50:05;;;;;;;3.00;1.88;;;18.60;99.90;;;;;;5074107;28;20028;-78
2023/07/02 00:52:30;;;;;;;3.75;2.00;;;18.60;99.90;;;;;;5074702;28;20028;-78
2023/07/02 00:54:56;;;;;;;2.60;1.90;;;18.60;99.90;;;;;;5073544;28;20023;-79
2023/07/02 00:57:22;;;;;;;5.30;1.98;;;18.60;99.90;;;;;;5075427;28;20461;-79
2023/07/02 00:59:47;;;;;;;3.38;2.00;;;18.60;99.90;;;;;;5075095;28;20021;-79
2023/07/02 01:02:13;;;;;;;2.50;1.70;;;18.60;99.90;;;;;;5074920;28;20032;-79
2023/07/02 01:04:39;;;;;;;4.13;2.10;;;18.60;99.90;;;;;;5073515;28;20159;-79
2023/07/02 01:07:09;;;;;;;4.82;2.00;;;18.70;99.90;;;;;;5073873;28;20338;-79
2023/07/02 01:09:35;;;;;;;8.52;4.07;;;18.70;99.90;;;;;;5074511;28;20127;-79
2023/07/02 01:12:05;;;;;;;7.28;4.15;;;18.70;99.90;;;;;;5075003;28;20195;-79
2023/07/02 01:14:44;;;;;;;4.55;2.60;;;18.70;99.90;;;;;;5073065;28;20020;-79
2023/07/02 01:17:10;;;;;;;5.15;2.03;;;18.70;99.90;;;;;;5074864;28;20016;-79
2023/07/02 01:19:52;;;;;;;4.78;1.92;;;18.70;99.90;;;;;;5073083;28;20024;-79
2023/07/02 01:22:20;;;;;;;4.47;2.00;;;18.70;99.90;;;;;;5074514;28;20024;-79
2023/07/02 01:24:49;;;;;;;6.00;1.83;;;18.60;99.90;;;;;;5074116;28;20361;-79
2023/07/02 01:27:15;;;;;;;6.00;1.85;;;18.60;99.90;;;;;;5072020;28;20020;-79
2023/07/02 01:29:42;;;;;;;3.90;1.90;;;18.60;99.90;;;;;;5072520;28;20212;-80
2023/07/02 01:32:11;;;;;;;7.07;2.72;;;18.60;99.90;;;;;;5073339;28;20471;-79
2023/07/02 01:34:36;;;;;;;4.70;1.98;;;18.60;99.90;;;;;;5072488;28;20024;-80
2023/07/02 01:37:04;;;;;;;5.50;2.10;;;18.60;99.90;;;;;;5073013;28;20024;-79
2023/07/02 01:39:29;;;;;;;4.97;2.10;;;18.60;99.90;;;;;;5073285;28;20025;-79
2023/07/02 01:42:08;;;;;;;5.07;3.03;;;18.60;99.90;;;;;;5072469;28;20048;-79
2023/07/02 01:44:33;;;;;;;7.28;4.78;;;18.60;99.90;;;;;;5072190;28;20025;-79
2023/07/02 01:46:59;;;;;;;3.80;2.03;;;18.60;99.90;;;;;;5072292;28;20028;-78
2023/07/02 01:49:25;;;;;;;3.00;1.67;;;18.60;99.90;;;;;;5071998;28;20052;-81
2023/07/02 01:51:52;;;;;;;5.32;2.00;;;18.60;99.90;;;;;;5073992;28;20103;-79
2023/07/02 01:54:19;;;;;;;5.03;2.03;;;18.60;99.90;;;;;;5073813;28;20429;-78
2023/07/02 01:56:45;;;;;;;3.78;2.10;;;18.50;99.90;;;;;;5072361;28;20024;-79
2023/07/02 01:59:11;;;;;;;5.72;1.80;;;18.50;99.90;;;;;;5072696;28;20021;-79
2023/07/02 02:01:41;;;;;;;4.85;1.70;;;18.50;99.90;;;;;;5072155;28;20381;-79
2023/07/02 02:04:07;;;;;;;4.22;1.80;;;18.50;99.90;;;;;;5073846;28;20029;-79
2023/07/02 02:06:34;;;;;;;4.93;2.08;;;18.50;99.90;;;;;;5072042;28;20055;-79
2023/07/02 02:09:00;;;;;;;3.70;2.05;;;18.40;99.90;;;;;;5072525;28;20024;-79
2023/07/02 02:11:25;;;;;;;3.25;2.00;;;18.40;99.90;;;;;;5073092;28;20112;-82
2023/07/02 02:13:51;;;;;;;5.57;2.35;;;18.40;99.90;;;;;;5072210;28;20134;-79
2023/07/02 02:16:17;;;;;;;5.72;2.00;;;18.40;99.90;;;;;;5073266;28;20432;-79
2023/07/02 02:18:42;;;;;;;4.07;1.95;;;18.40;99.90;;;;;;5072097;28;20510;-79
2023/07/02 02:21:08;;;;;;;5.57;1.95;;;18.40;99.90;;;;;;5072303;28;20032;-78
2023/07/02 02:23:33;;;;;;;4.50;2.03;;;18.30;99.90;;;;;;5072086;28;20135;-79
2023/07/02 02:25:59;;;;;;;4.78;2.10;;;18.30;99.90;;;;;;5073677;28;20055;-79
2023/07/02 02:28:24;;;;;;;2.83;1.95;;;18.40;99.90;;;;;;5073298;28;20346;-80
2023/07/02 02:30:50;;;;;;;8.73;2.17;;;18.30;99.90;;;;;;5071982;28;20017;-79
2023/07/02 02:33:16;;;;;;;5.25;2.10;;;18.30;99.90;;;;;;5072558;28;20468;-79
2023/07/02 02:35:41;;;;;;;4.72;1.85;;;18.40;99.90;;;;;;5071896;28;20419;-79
2023/07/02 02:38:07;;;;;;;3.58;1.60;;;18.30;99.90;;;;;;5073118;28;20020;-79
2023/07/02 02:40:33;;;;;;;3.92;1.70;;;18.30;99.90;;;;;;5071927;28;20438;-79
2023/07/02 02:42:58;;;;;;;6.65;1.70;;;18.30;99.90;;;;;;5071543;28;20056;-79
2023/07/02 02:45:24;;;;;;;4.50;1.80;;;18.30;99.90;;;;;;5073531;28;20078;-80
2023/07/02 02:47:49;;;;;;;6.00;1.83;;;18.20;99.90;;;;;;5071957;28;20020;-79
2023/07/02 02:50:15;;;;;;;8.32;2.05;;;18.20;99.90;;;;;;5072075;28;20024;-79
2023/07/02 02:52:41;;;;;;;3.90;1.55;;;18.10;99.90;;;;;;5072932;28;20078;-79
2023/07/02 02:55:10;;;;;;;6.32;2.38;;;18.10;99.90;;;;;;5073274;28;20103;-79
2023/07/02 02:57:36;;;;;;;5.00;2.03;;;18.10;99.90;;;;;;5071406;28;20048;-79
2023/07/02 03:00:02;;;;;;;7.95;2.10;;;18.10;99.90;;;;;;5071990;28;20025;-79
2023/07/02 03:02:27;;;;;;;3.65;1.65;;;18.20;99.90;;;;;;5072523;28;20027;-81
2023/07/02 03:04:53;;;;;;;4.05;1.70;;;18.10;99.90;;;;;;5071419;28;20013;-80
2023/07/02 03:07:19;;;;;;;3.40;1.73;;;18.10;99.90;;;;;;5071689;28;20107;-79
2023/07/02 03:09:45;;;;;;;4.38;2.03;;;18.20;99.90;;;;;;5071182;28;20021;-79
2023/07/02 03:12:11;;;;;;;4.40;2.00;;;18.10;99.90;;;;;;5071446;28;20032;-79
2023/07/02 03:14:37;;;;;;;4.57;1.73;;;18.10;99.90;;;;;;5072159;28;20546;-79
2023/07/02 03:17:03;;;;;;;3.22;1.70;;;18.10;99.90;;;;;;5071965;28;20024;-79
2023/07/02 03:19:28;;;;;;;5.15;1.83;;;18.10;99.90;;;;;;5071527;28;20043;-80
2023/07/02 03:21:54;;;;;;;7.05;2.03;;;18.10;99.90;;;;;;5071640;28;20029;-79
2023/07/02 03:24:20;;;;;;;4.63;1.80;;;18.10;99.90;;;;;;5072461;28;20350;-79
2023/07/02 03:26:45;;;;;;;4.88;1.75;;;18.00;99.90;;;;;;5072344;28;20024;-79
2023/07/02 03:29:11;;;;;;;4.40;1.75;;;18.00;99.90;;;;;;5071564;28;20020;-79
2023/07/02 03:31:37;;;;;;;5.78;1.75;;;18.00;99.90;;;;;;5072104;28;20103;-79
2023/07/02 03:34:09;;;;;;;4.72;1.77;;;18.00;99.90;;;;;;5071126;28;20082;-79
2023/07/02 03:36:34;;;;;;;3.30;1.63;;;18.00;99.90;;;;;;5072330;28;20024;-80
2023/07/02 03:39:00;;;;;;;3.03;1.45;;;18.00;99.90;;;;;;5071553;28;20024;-78
2023/07/02 03:41:26;;;;;;;8.65;2.00;;;17.90;99.90;;;;;;5072150;28;20422;-79
2023/07/02 03:43:51;;;;;;;6.00;1.85;;;17.90;99.90;;;;;;5071750;28;20060;-79
2023/07/02 03:46:17;;;;;;;4.47;1.63;;;17.90;99.90;;;;;;5071012;28;20017;-79
2023/07/02 03:48:42;;;;;;;6.70;2.05;;;17.90;99.90;;;;;;5070827;28;20025;-79
2023/07/02 03:51:08;;;;;;;3.88;1.50;;;17.90;99.90;;;;;;5074855;28;20024;-79
2023/07/02 03:53:34;;;;;;;5.65;1.90;;;17.90;99.90;;;;;;5074517;28;20028;-79
2023/07/02 03:55:59;;;;;;;5.13;1.65;;;17.90;99.90;;;;;;5076165;28;20016;-78
2023/07/02 03:58:25;;;;;;;5.70;1.80;;;17.90;99.90;;;;;;5074389;28;20021;-78
2023/07/02 04:00:51;;;;;;;5.38;2.25;;;17.90;99.90;;;;;;5075109;28;20168;-78
2023/07/02 04:03:17;;;;;;;4.40;1.98;;;17.80;99.90;;;;;;5074648;28;20024;-78
2023/07/02 04:05:43;;;;;;;6.35;1.90;;;17.90;99.90;;;;;;5074067;28;20029;-79
2023/07/02 04:08:09;;;;;;;4.93;2.08;;;17.90;99.90;;;;;;5075790;28;20365;-78
2023/07/02 04:10:34;;;;;;;4.25;2.22;;;17.80;99.90;;;;;;5073870;28;20449;-79
2023/07/02 04:13:00;;;;;;;7.38;2.20;;;17.80;99.90;;;;;;5075883;28;20067;-78
2023/07/02 04:15:26;;;;;;;5.57;2.50;;;17.70;99.90;;;;;;5074359;28;20063;-78
2023/07/02 04:17:52;;;;;;;3.90;1.95;;;17.80;99.90;;;;;;5073749;28;20040;-78
2023/07/02 04:20:18;;;;;;;6.18;2.17;;;17.70;99.90;;;;;;5074593;28;20016;-79
2023/07/02 04:22:45;;;;;;;6.25;2.22;;;17.70;99.90;;;;;;5074939;28;20357;-78
2023/07/02 04:25:15;;;;;;;6.43;2.50;;;17.70;99.90;;;;;;5074338;28;20031;-78
2023/07/02 04:27:44;;;;;;;7.20;2.97;;;17.70;99.90;;;;;;5073508;28;20032;-79
2023/07/02 04:30:10;;;;;;;8.15;2.88;;;17.70;99.90;;;;;;5075330;28;20064;-78
2023/07/02 04:32:39;;;;;;;7.32;2.92;;;17.80;99.90;;;;;;5074604;28;20048;-79
2023/07/02 04:35:06;;;;;;;8.23;2.70;;;17.80;99.90;;;;;;5074008;28;20016;-78
2023/07/02 04:37:31;;;;;;;10.75;3.13;;;17.80;99.90;;;;;;5073762;28;20035;-79
2023/07/02 04:39:57;;;;;;;8.82;3.25;;;17.80;99.90;;;;;;5074548;28;20024;-78
2023/07/02 04:42:27;;;;;;;8.50;3.45;;;17.80;99.90;;;;;;5073266;28;20078;-78
2023/07/02 04:44:55;;;;;;;8.50;3.72;;;17.80;99.90;;;;;;5074394;28;20342;-78
2023/07/02 04:47:21;;;;;;;8.15;3.35;;;17.80;99.90;;;;;;5073618;28;20035;-78
2023/07/02 04:49:47;;;;;;;7.88;3.10;;;17.80;99.90;;;;;;5074472;28;20017;-78
2023/07/02 04:52:12;;;;;;;8.90;3.60;;;17.80;99.90;;;;;;5074898;28;20029;-78
2023/07/02 04:54:38;;;;;;;16.00;3.65;;;17.90;99.90;;;;;;5073020;28;20068;-79
2023/07/02 04:57:04;;;;;;;9.82;3.30;;;17.90;99.90;;;;;;5074599;28;20024;-78
2023/07/02 04:59:29;;;;;;;8.25;3.10;;;17.90;99.90;;;;;;5073639;28;20410;-79
2023/07/02 05:01:55;;;;;;;9.55;4.18;;;17.90;99.90;;;;;;5074133;28;20054;-78
2023/07/02 05:04:21;;;;;;;10.52;3.38;;;17.90;99.90;;;;;;5073427;28;20079;-78
2023/07/02 05:06:46;;;;;;;8.13;2.70;;;17.90;99.90;;;;;;5073975;28;20028;-79
2023/07/02 05:09:12;;;;;;;8.68;3.17;;;17.90;99.90;;;;;;5073246;28;20027;-79
2023/07/02 05:11:37;;;;;;;7.18;3.10;;;18.00;99.90;;;;;;5072482;28;20028;-79
2023/07/02 05:14:03;;;;;;;8.95;3.38;;;18.00;99.90;;;;;;5073300;28;20021;-78
2023/07/02 05:16:28;;;;;;;8.55;3.42;;;18.00;99.90;;;;;;5074290;28;20047;-78
2023/07/02 05:18:54;;;;;;;8.38;3.22;;;18.00;99.90;;;;;;5072508;28;20491;-78
2023/07/02 05:21:20;;;;;;;7.05;3.30;;;18.00;99.90;;;;;;5073021;28;20070;-78
2023/07/02 05:23:46;;;;;;;10.38;3.75;;;18.10;99.90;;;;;;5072346;28;20052;-78
2023/07/02 05:26:12;;;;;;;8.68;3.78;;;18.00;99.90;;;;;;5074260;28;20111;-79
2023/07/02 05:28:38;;;;;;;12.82;3.80;;;18.00;99.90;;;;;;5072508;28;20056;-80
2023/07/02 05:31:03;;;;;;;9.23;3.88;;;18.00;99.90;;;;;;5074222;28;20408;-80
2023/07/02 05:33:31;;;;;;;11.45;3.83;;;18.00;99.90;;;;;;5072772;28;20032;-80
2023/07/02 05:35:56;;;;;;;11.68;4.35;;;18.10;99.90;;;;;;5072428;28;20031;-79
2023/07/02 05:38:22;;;;;;;8.13;3.65;;;18.00;99.90;;;;;;5072927;28;20024;-80
2023/07/02 05:40:47;;;;;;;6.25;3.67;;;18.00;99.90;;;;;;5072079;28;20461;-79
2023/07/02 05:43:13;;;;;;;6.40;3.55;;;18.00;99.90;;;;;;5074095;28;20078;-80
2023/07/02 05:45:39;;;;;;;8.80;4.13;;;18.10;99.90;;;;;;5072212;28;20050;-82
2023/07/02 05:48:04;;;;;;;8.18;3.55;;;18.10;99.90;;;;;;5072327;28;20027;-80
2023/07/02 05:50:30;;;;;;;8.63;3.85;;;18.20;99.90;;;;;;5071963;28;20021;-79
2023/07/02 05:52:56;;;;;;;8.57;3.60;;;18.20;99.90;;;;;;5072030;28;20028;-80
2023/07/02 05:55:21;;;;;;;9.13;3.80;;;18.20;99.90;;;;;;5072602;28;20023;-79
2023/07/02 05:57:47;;;;;;;14.48;4.32;;;18.20;99.90;;;;;;5072079;28;20052;-80
2023/07/02 06:00:13;;;;;;;13.10;3.80;;;18.20;99.90;;;;;;5072613;28;20116;-79
2023/07/02 06:02:38;;;;;;;6.80;3.50;;;18.20;99.90;;;;;;5072339;28;20032;-81
2023/07/02 06:05:04;;;;;;;10.45;3.65;;;18.30;99.90;;;;;;5072184;28;20369;-79
2023/07/02 06:07:30;;;;;;;9.13;3.10;;;18.20;99.90;;;;;;5072173;28;20031;-79
2023/07/02 06:09:55;;;;;;;9.00;3.60;;;18.30;99.90;;;;;;5071536;28;20024;-80
2023/07/02 06:12:22;;;;;;;7.03;2.75;;;18.30;99.90;;;;;;5073236;28;20119;-79
2023/07/02 06:14:48;;;;;;;6.22;2.83;;;18.40;99.90;;;;;;5072566;28;20024;-80
2023/07/02 06:17:15;;;;;;;6.70;3.20;;;18.40;99.90;;;;;;5072610;28;20127;-80
2023/07/02 06:19:41;;;;;;;10.68;2.92;;;18.50;99.90;;;;;;5071955;28;20020;-81
2023/07/02 06:22:06;;;;;;;6.10;3.63;;;18.50;99.90;;;;;;5072276;28;20373;-80
2023/07/02 06:24:32;;;;;;;7.75;2.97;;;18.60;99.90;;;;;;5072285;28;20020;-79
2023/07/02 06:26:58;;;;;;;9.90;3.20;;;18.60;99.90;;;;;;5071811;28;20036;-80
2023/07/02 06:29:24;;;;;;;10.43;3.60;;;18.60;99.90;;;;;;5072231;28;20024;-79
2023/07/02 06:31:50;;;;;;;11.75;3.60;;;18.70;99.90;;;;;;5071672;28;20368;-80
2023/07/02 06:34:15;;;;;;;9.27;3.47;;;18.70;99.90;;;;;;5072210;28;20021;-79
2023/07/02 06:36:41;;;;;;;9.50;3.92;;;18.70;99.90;;;;;;5071330;28;20027;-80
2023/07/02 06:39:09;;;;;;;11.90;4.45;;;18.60;99.90;;;;;;5072163;28;20025;-79
2023/07/02 06:41:35;;;;;;;11.05;4.32;;;18.60;99.90;;;;;;5071353;28;20049;-80
2023/07/02 06:44:00;;;;;;;9.27;4.03;;;18.60;99.90;;;;;;5071230;28;20028;-78
2023/07/02 06:46:26;;;;;;;14.52;4.22;;;18.60;99.90;;;;;;5071864;28;20028;-78
2023/07/02 06:48:51;;;;;;;12.43;4.82;;;18.60;99.90;;;;;;5072528;28;20469;-78
2023/07/02 06:51:18;;;;;;;18.42;5.32;;;18.60;99.90;;;;;;5071694;28;20412;-77
2023/07/02 06:53:44;;;;;;;13.75;5.45;;;18.50;99.90;;;;;;5070991;28;20036;-80
2023/07/02 06:56:10;;;;;;;15.90;5.50;;;18.50;99.90;;;;;;5072028;28;20131;-77
2023/07/02 06:58:36;;;;;;;15.57;5.53;;;18.50;99.90;;;;;;5072975;28;20452;-78
2023/07/02 07:01:02;;;;;;;15.02;5.63;;;18.50;99.90;;;;;;5071170;28;20020;-78
2023/07/02 07:03:28;;;;;;;17.50;6.75;;;18.50;99.90;;;;;;5071734;28;20024;-78
2023/07/02 07:05:53;;;;;;;16.13;6.55;;;18.50;99.90;;;;;;5071044;28;20020;-78
2023/07/02 07:08:19;;;;;;;16.48;6.88;;;18.50;99.90;;;;;;5071557;28;20050;-78
2023/07/02 07:10:45;;;;;;;16.42;6.97;;;18.50;99.90;;;;;;5072181;28;20095;-78
2023/07/02 07:13:11;;;;;;;15.05;7.05;;;18.40;99.90;;;;;;5067835;28;20036;-79
2023/07/02 07:15:37;;;;;;;16.10;7.07;;;18.40;99.90;;;;;;5072929;28;20402;-77
2023/07/02 07:18:04;;;;;;;15.48;6.65;;;18.40;99.90;;;;;;5076927;28;20028;-78
2023/07/02 07:20:30;;;;;;;13.32;7.15;;;18.50;99.90;;;;;;5071802;28;20036;-77
2023/07/02 07:22:56;;;;;;;16.02;7.22;;;18.50;99.90;;;;;;5070941;28;20032;-78
2023/07/02 07:25:22;;;;;;;15.73;6.53;;;18.50;99.90;;;;;;5076128;28;20458;-79
2023/07/02 07:27:47;;;;;;;16.88;7.45;;;18.50;99.90;;;;;;5074596;28;20050;-78
2023/07/02 07:30:14;;;;;;;20.73;7.13;;;18.50;99.90;;;;;;5076897;28;20016;-79
2023/07/02 07:32:41;;;;;;;18.65;7.18;;;18.50;99.90;;;;;;5077361;28;20026;-79
2023/07/02 07:35:07;;;;;;;15.73;6.93;;;18.50;99.90;;;;;;5076195;28;20085;-79
2023/07/02 07:37:33;;;;;;;14.55;7.18;;;18.50;99.90;;;;;;5077756;28;20442;-78
2023/07/02 07:39:58;;;;;;;21.30;7.82;;;18.60;99.90;;;;;;5076537;28;20024;-80
2023/07/02 07:42:24;;;;;;;17.58;7.38;;;18.60;99.90;;;;;;5074606;28;20044;-79
2023/07/02 07:44:50;;;;;;;19.08;8.30;;;18.70;99.90;;;;;;5081032;28;20504;-80
2023/07/02 07:47:15;;;;;;;20.02;9.05;;;18.70;99.90;;;;;;5085395;28;20016;-78
2023/07/02 07:49:41;;;;;;;19.48;7.80;;;18.70;99.90;;;;;;5088812;28;20020;-79
2023/07/02 07:52:07;;;;;;;16.98;8.40;;;18.70;99.90;;;;;;5095423;28;20122;-79
2023/07/02 07:54:35;;;;;;;16.67;8.20;;;18.80;99.90;;;;;;5078851;28;20020;-79
2023/07/02 07:57:01;;;;;;;21.05;8.13;;;18.90;99.90;;;;;;5082745;28;20020;-80
2023/07/02 07:59:26;;;;;;;19.17;8.38;;;19.00;99.90;;;;;;5085423;28;20027;-79
2023/07/02 08:01:52;;;;;;;22.45;8.88;;;19.10;99.90;;;;;;5074922;28;20068;-78
2023/07/02 08:04:17;;;;;;;21.45;8.90;;;19.10;99.90;;;;;;5074677;28;20039;-79
2023/07/02 08:06:43;;;;;;;23.92;9.02;;;19.20;99.90;;;;;;5079046;28;20070;-79
2023/07/02 08:09:09;;;;;;;25.83;9.93;;;19.20;99.90;;;;;;5094107;28;20384;-79
2023/07/02 08:11:35;;;;;;;23.75;8.68;;;19.30;99.90;;;;;;5094347;28;20028;-79
2023/07/02 08:14:00;;;;;;;20.15;9.35;;;19.30;99.90;;;;;;5083826;28;20024;-79
2023/07/02 08:16:26;;;;;;;18.40;8.98;;;19.30;99.90;;;;;;5076543;28;20025;-79
2023/07/02 08:18:52;;;;;;;23.58;9.00;;;19.50;99.90;;;;;;5088139;28;20025;-80
2023/07/02 08:21:17;;;;;;;20.65;9.93;;;19.50;99.90;;;;;;5083605;28;20016;-80
2023/07/02 08:23:44;;;;;;;22.05;9.15;;;19.70;99.90;;;;;;5094279;28;20039;-80
2023/07/02 08:26:10;;;;;;;22.48;10.00;;;19.70;99.90;;;;;;5095579;28;20453;-81
2023/07/02 08:28:37;;;;;;;19.50;9.55;;;19.80;99.90;;;;;;5091855;28;20055;-80
2023/07/02 08:31:04;;;;;;;23.52;10.27;;;19.80;99.90;;;;;;5073368;28;20255;-79
2023/07/02 08:33:29;;;;;;;24.80;10.52;;;19.70;99.90;;;;;;5076663;28;20377;-80
2023/07/02 08:35:55;;;;;;;22.23;10.02;;;19.60;99.90;;;;;;5093672;28;20016;-80
2023/07/02 08:38:21;;;;;;;23.92;10.98;;;19.60;99.90;;;;;;5075829;28;20530;-81
2023/07/02 08:40:49;;;;;;;25.00;10.80;;;19.50;99.90;;;;;;5074453;28;20016;-81
2023/07/02 08:43:14;;;;;;;28.77;11.10;;;19.60;99.90;;;;;;5073772;28;20028;-79
2023/07/02 08:45:42;;;;;;;22.95;10.80;;;19.60;99.90;;;;;;5075002;28;20503;-79
2023/07/02 08:48:08;;;;;;;24.10;10.35;;;19.70;99.90;;;;;;5073191;28;20029;-80
2023/07/02 08:50:34;;;;;;;25.10;11.50;;;19.90;99.90;;;;;;5073597;28;20024;-81
2023/07/02 08:52:59;;;;;;;25.00;11.02;;;20.00;99.90;;;;;;5073440;28;20020;-79
2023/07/02 08:55:27;;;;;;;26.95;11.07;;;20.00;99.90;;;;;;5074764;28;20024;-80
2023/07/02 08:57:54;;;;;;;23.38;11.02;;;20.00;99.90;;;;;;5073286;28;20067;-80
2023/07/02 09:00:20;;;;;;;25.05;11.75;;;20.00;99.90;;;;;;5074942;28;20442;-80
2023/07/02 09:02:46;;;;;;;24.27;11.20;;;20.00;99.90;;;;;;5073162;28;20025;-79
2023/07/02 09:05:12;;;;;;;23.75;10.80;;;20.20;99.90;;;;;;5087052;28;20077;-79
2023/07/02 09:07:45;;;;;;;26.13;11.52;;;20.20;99.90;;;;;;5095000;28;20016;-79
2023/07/02 09:10:11;;;;;;;30.30;11.65;;;20.10;99.90;;;;;;5093007;28;20028;-80
2023/07/02 09:12:38;;;;;;;24.92;11.63;;;20.00;99.90;;;;;;5094752;28;20080;-79
2023/07/02 09:15:06;;;;;;;23.58;11.38;;;20.00;99.90;;;;;;5074206;28;20024;-78
2023/07/02 09:17:36;;;;;;;28.45;11.32;;;20.20;99.90;;;;;;5073320;28;20024;-79
2023/07/02 09:20:06;;;;;;;23.42;11.23;;;20.30;99.90;;;;;;5084275;28;20027;-79
2023/07/02 09:22:31;;;;;;;26.23;11.75;;;20.40;99.90;;;;;;5074787;28;20035;-79
2023/07/02 09:24:59;;;;;;;27.92;11.60;;;20.60;99.90;;;;;;5087980;28;20021;-81
2023/07/02 09:27:36;;;;;;;24.45;11.43;;;20.60;99.90;;;;;;5073119;28;20020;-80
2023/07/02 09:30:13;;;;;;;24.27;10.68;;;20.50;99.90;;;;;;5084643;28;20024;-80
2023/07/02 09:32:39;;;;;;;27.02;11.13;;;20.50;99.90;;;;;;5093214;28;20024;-80
2023/07/02 09:35:05;;;;;;;26.88;11.07;;;20.50;99.90;;;;;;5092978;28;20023;-80
2023/07/02 09:37:31;;;;;;;27.13;10.85;;;20.60;99.50;;;;;;5094495;28;20028;-80
2023/07/02 09:39:57;;;;;;;26.13;11.10;;;20.50;99.80;;;;;;5092485;28;20020;-80
2023/07/02 09:42:25;;;;;;;24.17;11.02;;;20.60;99.90;;;;;;5092495;28;20044;-79
2023/07/02 09:44:54;;;;;;;22.50;11.35;;;20.50;99.70;;;;;;5092284;28;20031;-81
2023/07/02 09:47:22;;;;;;;25.77;10.73;;;20.60;99.90;;;;;;5091985;28;20082;-79
2023/07/02 09:49:48;;;;;;;28.95;11.05;;;20.60;99.90;;;;;;5092589;28;20051;-80
2023/07/02 09:52:14;;;;;;;23.10;10.80;;;20.70;99.90;;;;;;5093641;28;20100;-79
2023/07/02 09:54:41;;;;;;;27.85;11.30;;;20.70;98.90;;;;;;5086017;28;20017;-80
2023/07/02 09:57:07;;;;;;;20.13;11.02;;;20.60;99.00;;;;;;5072079;28;20195;-80
2023/07/02 09:59:33;;;;;;;26.75;11.15;;;20.60;99.20;;;;;;5095205;28;20016;-80
2023/07/02 10:01:59;;;;;;;26.75;10.68;;;20.60;98.30;;;;;;5092068;28;20036;-79
2023/07/02 10:04:25;;;;;;;20.73;9.98;;;20.70;98.80;;;;;;5092568;28;20012;-80
2023/07/02 10:06:55;;;;;;;21.75;10.52;;;21.00;99.20;;;;;;5092601;28;20055;-80
2023/07/02 10:09:38;;;;;;;27.58;11.00;;;21.10;98.10;;;;;;5089244;28;20046;-80
2023/07/02 10:12:29;;;;;;;20.52;10.27;;;21.30;98.40;;;;;;5071583;28;20036;-80
2023/07/02 10:14:57;;;;;;;23.70;11.25;;;21.40;97.80;;;;;;5071944;28;20025;-80
2023/07/02 10:17:34;;;;;;;25.85;11.05;;;21.40;98.10;;;;;;5073439;28;20104;-79
2023/07/02 10:20:06;;;;;;;26.85;10.68;;;21.40;97.90;;;;;;5081037;28;20023;-80
2023/07/02 10:22:47;;;;;;;25.23;10.63;;;21.30;98.40;;;;;;5092404;28;20456;-80
2023/07/02 10:25:23;;;;;;;25.00;11.52;;;21.20;98.70;;;;;;5081862;28;20020;-80
2023/07/02 10:27:49;;;;;;;24.75;10.60;;;21.20;97.80;;;;;;5067952;28;20027;-77
2023/07/02 10:30:14;;;;;;;24.50;10.75;;;21.10;97.30;;;;;;5071506;28;20107;-79
2023/07/02 10:32:40;;;;;;;17.77;9.50;;;21.10;97.60;;;;;;5073402;28;20400;-80
2023/07/02 10:35:17;;;;;;;20.25;9.90;;;21.10;97.50;;;;;;5066378;28;20029;-78
2023/07/02 10:37:43;;;;;;;22.67;10.48;;;21.20;96.60;;;;;;5063466;28;20090;-84
2023/07/02 10:40:10;;;;;;;25.17;10.65;;;21.20;97.10;;;;;;5067047;28;20028;-84
2023/07/02 10:42:49;;;;;;;27.83;10.75;;;21.30;97.00;;;;;;5064466;28;20044;-85
2023/07/02 10:45:15;;;;;;;24.80;11.20;;;21.60;96.40;;;;;;5095934;28;20024;-85
2023/07/02 10:47:41;;;;;;;21.40;10.77;;;21.80;95.90;;;;;;5066833;28;20023;-85
2023/07/02 10:50:21;;;;;;;24.98;10.80;;;22.00;96.00;;;;;;5071928;28;20028;-83
2023/07/02 10:52:50;;;;;;;23.90;10.50;;;22.00;95.10;;;;;;5073211;28;20055;-84
2023/07/02 10:55:19;;;;;;;22.10;9.40;;;21.90;95.60;;;;;;5077500;28;20035;-84
2023/07/02 10:57:44;;;;;;;24.08;11.13;;;21.90;95.30;;;;;;5070669;28;20350;-84
2023/07/02 11:00:11;;;;;;;21.70;10.05;;;21.80;95.60;;;;;;5076186;28;20025;-85
2023/07/02 11:02:37;;;;;;;27.75;11.30;;;21.80;95.50;;;;;;5076371;28;20021;-86
2023/07/02 11:05:06;;;;;;;21.92;10.45;;;21.60;95.80;;;;;;5076172;28;20036;-87
2023/07/02 11:07:34;;;;;;;22.25;10.60;;;21.50;96.10;;;;;;5076443;28;20021;-86
2023/07/02 11:10:00;;;;;;;23.63;10.50;;;21.50;96.20;;;;;;5077177;28;20087;-87
2023/07/02 11:12:32;;;;;;;22.20;10.73;;;21.50;95.60;;;;;;5076224;28;20045;-86
2023/07/02 11:15:10;;;;;;;25.88;10.93;;;21.50;95.80;;;;;;5080611;28;20020;-87
2023/07/02 11:17:36;;;;;;;24.40;11.02;;;21.60;94.90;;;;;;5097195;28;20066;-90
2023/07/02 11:20:05;;;;;;;26.48;11.13;;;21.60;94.90;;;;;;5077319;28;20284;-84
2023/07/02 11:22:34;;;;;;;20.58;10.25;;;21.60;95.10;;;;;;5069312;28;20067;-89
2023/07/02 11:25:10;;;;;;;23.67;11.40;;;21.70;95.50;;;;;;5072043;28;20032;-87
2023/07/02 11:27:36;;;;;;;25.00;11.07;;;21.90;95.00;;;;;;5080920;28;20043;-86
2023/07/02 11:30:02;;;;;;;25.45;12.23;;;22.00;94.40;;;;;;5071169;28;20500;-92
2023/07/02 11:32:28;;;;;;;44.58;17.10;;;22.30;94.00;;;;;;5091583;28;20380;-87
2023/07/02 11:34:54;;;;;;;23.77;10.80;;;22.40;93.80;;;;;;5090345;28;20024;-88
2023/07/02 11:37:20;;;;;;;27.05;11.85;;;22.40;93.30;;;;;;5096380;28;20052;-92
2023/07/02 11:39:45;;;;;;;27.65;11.00;;;22.50;94.10;;;;;;5097457;28;20059;-92
2023/07/02 11:42:11;;;;;;;24.73;11.38;;;22.70;93.40;;;;;;5082699;28;20493;-92
2023/07/02 11:44:37;;;;;;;20.20;10.65;;;22.70;93.20;;;;;;5076299;28;20021;-95
2023/07/02 11:47:02;;;;;;;21.13;10.68;;;22.70;92.90;;;;;;5071874;28;20032;-92
2023/07/02 11:49:28;;;;;;;24.98;11.00;;;22.80;92.80;;;;;;5075396;28;20119;-91
2023/07/02 11:51:54;;;;;;;24.23;11.02;;;22.80;92.90;;;;;;5075385;28;20017;-91
2023/07/02 11:54:19;;;;;;;25.95;11.23;;;22.70;92.80;;;;;;5083369;28;20110;-91
2023/07/02 11:56:45;;;;;;;21.92;10.43;;;22.60;92.70;;;;;;5075914;28;20474;-91
2023/07/02 11:59:11;;;;;;;29.20;11.43;;;22.60;92.70;;;;;;5075287;28;20108;-90
2023/07/02 12:01:36;;;;;;;22.52;10.65;;;22.50;92.00;;;;;;5075311;28;20043;-92
2023/07/02 12:04:02;;;;;;;22.92;10.63;;;22.60;92.50;;;;;;5076544;28;20052;-91
2023/07/02 12:06:28;;;;;;;23.55;10.73;;;22.70;91.50;;;;;;5076533;28;20024;-90
2023/07/02 12:08:53;;;;;;;23.98;10.93;;;22.90;90.50;;;;;;5076699;28;20082;-89
2023/07/02 12:11:19;;;;;;;23.95;11.32;;;23.20;90.00;;;;;;5075162;28;20484;-91
2023/07/02 12:13:45;;;;;;;24.25;10.65;;;23.30;90.10;;;;;;5076581;28;20024;-89
2023/07/02 12:16:10;;;;;;;21.60;11.02;;;23.60;90.50;;;;;;5076900;28;20407;-89
2023/07/02 12:18:36;;;;;;;19.67;9.77;;;23.70;89.50;;;;;;5078328;28;20031;-86
2023/07/02 12:21:01;;;;;;;22.85;10.15;;;23.60;88.20;;;;;;5077894;28;20372;-89
2023/07/02 12:23:27;;;;;;;21.48;10.43;;;23.60;86.90;;;;;;5095831;28;20055;-91
2023/07/02 12:25:52;;;;;;;23.35;11.05;;;23.60;88.10;;;;;;5095652;28;20024;-90
2023/07/02 12:28:18;;;;;;;22.80;10.38;;;23.50;87.50;;;;;;5096527;28;20036;-90
2023/07/02 12:30:44;;;;;;;21.13;10.20;;;23.40;88.40;;;;;;5078261;28;20077;-91
2023/07/02 12:33:09;;;;;;;22.88;10.80;;;23.30;87.90;;;;;;5079634;28;20032;-89
2023/07/02 12:35:35;;;;;;;23.02;11.20;;;23.40;87.50;;;;;;5086643;28;20020;-89